Boa Vista da Aparecida, Brazil
Current Conditions -  °F | °C
As of 5:00 AM on Monday 22 Dec 2014 (Local Time) from SBCA Reporting Station
Moderate Fog Moderate Fog  
Wind Chill: 66°   Ceiling: 100
Heat Index: 66°   Visibility: 0.56mi
Dew Point: 66°   Wind: 0mph
Humidity: 100%   Direction: NA
Pressure: 29.8"   Gusts: NA
Location:  25.44°S, 53.41°W
Report Text: SBCA 220700Z 00000KT 0900 FG BKN001 19/19 Q1009
Loading
Personal Weather Stations






























Interactive Weather Map New forecast layout! Learn more

10-Day Weather Forecast

Advertisements
Track Severe Weather on mobile